Time;durP1;ratioP1;P1;durP2;ratioP2;P2;SDS_P1;SDS_P2;PMS_P1;PMS_P2;Temp;Humidity;BMP_temperature;BMP_pressure;BME280_temperature;BME280_humidity;BME280_pressure;Samples;Min_cycle;Max_cycle;Signal;HPM_P1;HPM_P2
2022/11/13 00:01:29;;;;;;;77.38;39.80;;;;;;;5.64;97.91;99250.44;10340829;28;20069;-57
2022/11/13 00:06:28;;;;;;;85.13;46.58;;;;;;;5.60;98.30;99245.94;10340414;28;20403;-57
2022/11/13 00:11:27;;;;;;;90.35;47.10;;;;;;;5.55;98.14;99246.66;10340323;28;20040;-58
2022/11/13 00:16:26;;;;;;;82.78;44.53;;;;;;;5.49;97.85;99242.94;10339624;28;20069;-57
2022/11/13 00:21:26;;;;;;;84.90;43.42;;;;;;;5.42;98.49;99239.22;10340012;28;20025;-58
2022/11/13 00:26:27;;;;;;;94.85;44.60;;;;;;;5.40;98.70;99245.97;10339506;28;20084;-58
2022/11/13 00:31:27;;;;;;;81.97;41.28;;;;;;;5.37;98.23;99242.38;10338626;28;20076;-58
2022/11/13 00:36:27;;;;;;;113.35;51.70;;;;;;;5.31;98.44;99241.31;10339375;28;20060;-58
2022/11/13 00:41:27;;;;;;;104.43;48.55;;;;;;;5.26;98.69;99245.38;10339508;28;20073;-58
2022/11/13 00:46:26;;;;;;;92.68;41.25;;;;;;;5.27;98.89;99236.84;10338810;28;20076;-57
2022/11/13 00:51:25;;;;;;;78.65;39.72;;;;;;;5.28;99.13;99230.88;10338786;28;20049;-58
2022/11/13 00:56:24;;;;;;;83.88;41.20;;;;;;;5.27;99.76;99241.09;10338619;28;20029;-58
2022/11/13 01:01:22;;;;;;;65.97;33.28;;;;;;;5.29;99.92;99232.63;10339232;28;20051;-58
2022/11/13 01:06:24;;;;;;;75.22;41.10;;;;;;;5.34;99.95;99236.31;10341664;28;20047;-58
2022/11/13 01:11:27;;;;;;;86.88;43.60;;;;;;;5.44;99.88;99232.44;10340084;28;20033;-58
2022/11/13 01:16:27;;;;;;;89.65;45.53;;;;;;;5.58;100.00;99224.41;10339668;28;20045;-58
2022/11/13 01:21:27;;;;;;;79.75;43.83;;;;;;;5.64;99.69;99225.53;10339123;28;20103;-58
2022/11/13 01:26:28;;;;;;;98.55;45.40;;;;;;;5.66;100.00;99213.63;10340302;28;20038;-58
2022/11/13 01:31:29;;;;;;;85.38;40.20;;;;;;;5.70;100.00;99214.63;10340624;28;20033;-58
2022/11/13 01:36:28;;;;;;;75.10;38.25;;;;;;;5.83;100.00;99206.59;10340438;28;20021;-58
2022/11/13 01:41:30;;;;;;;66.10;34.15;;;;;;;5.84;100.00;99202.34;10340340;28;20065;-58
2022/11/13 01:46:34;;;;;;;60.15;30.77;;;;;;;5.85;100.00;99197.22;10339787;28;20029;-58
2022/11/13 01:51:53;;;;;;;55.22;29.27;;;;;;;5.97;100.00;99196.84;10339813;28;20076;-58
2022/11/13 01:56:53;;;;;;;53.17;28.25;;;;;;;6.00;100.00;99185.78;10339611;28;20076;-57
2022/11/13 02:01:54;;;;;;;53.20;28.50;;;;;;;5.85;100.00;99184.34;10338533;28;20480;-58
2022/11/13 02:06:59;;;;;;;57.05;31.85;;;;;;;5.86;100.00;99182.63;10335874;28;20065;-58
2022/11/13 02:11:59;;;;;;;55.60;30.67;;;;;;;5.92;100.00;99188.06;10335801;28;20479;-58
2022/11/13 02:17:01;;;;;;;56.33;32.08;;;;;;;5.91;99.53;99182.03;10335172;28;20544;-58
2022/11/13 02:22:12;;;;;;;55.92;30.35;;;;;;;6.00;99.78;99189.25;10335036;28;20504;-58
2022/11/13 02:27:36;;;;;;;51.22;28.88;;;;;;;6.06;99.49;99184.31;10335090;28;20064;-58
2022/11/13 02:32:42;;;;;;;84.88;44.60;;;;;;;6.13;99.86;99188.03;10335027;28;20057;-58
2022/11/13 02:37:41;;;;;;;64.63;37.80;;;;;;;6.24;99.12;99193.63;10335303;28;20544;-58
2022/11/13 02:42:40;;;;;;;61.80;33.90;;;;;;;6.26;99.32;99187.72;10334360;28;20484;-58
2022/11/13 02:47:39;;;;;;;60.08;35.45;;;;;;;6.37;99.02;99188.09;10334088;28;20064;-58
2022/11/13 02:52:38;;;;;;;54.83;32.47;;;;;;;6.42;99.25;99188.28;10333874;28;20445;-56
2022/11/13 02:57:37;;;;;;;199.60;102.93;;;;;;;6.30;99.67;99202.44;10333832;28;20040;-56
2022/11/13 03:02:35;;;;;;;57.70;33.25;;;;;;;6.17;99.83;99195.06;10333819;28;20035;-56
2022/11/13 03:07:34;;;;;;;60.42;32.13;;;;;;;6.06;99.25;99196.34;10333686;28;20148;-56
2022/11/13 03:12:33;;;;;;;52.55;27.40;;;;;;;6.12;99.34;99200.03;10333740;28;20451;-56
2022/11/13 03:17:33;;;;;;;47.90;28.02;;;;;;;6.18;98.71;99192.53;10333190;28;20072;-56
2022/11/13 03:22:32;;;;;;;47.95;28.00;;;;;;;6.24;98.69;99191.06;10332581;28;20072;-56
2022/11/13 03:27:32;;;;;;;45.70;27.50;;;;;;;6.30;99.01;99181.81;10333148;28;20035;-56
2022/11/13 03:32:30;;;;;;;;;;;;;;;6.24;98.71;99189.34;10332441;28;20072;-56
2022/11/13 03:37:29;;;;;;;49.05;28.52;;;;;;;6.04;99.85;99191.13;10332466;28;20331;-56
2022/11/13 03:42:28;;;;;;;78.93;45.78;;;;;;;5.94;99.45;99194.16;10333432;28;20060;-56
2022/11/13 03:47:27;;;;;;;41.28;24.27;;;;;;;5.54;100.00;99188.22;10332401;28;20034;-56
2022/11/13 03:52:26;;;;;;;39.47;23.92;;;;;;;5.59;100.00;99179.81;10332192;28;20046;-56
2022/11/13 03:57:25;;;;;;;43.25;25.52;;;;;;;5.65;100.00;99180.97;10331479;28;20041;-56
2022/11/13 04:02:24;;;;;;;46.38;26.60;;;;;;;5.73;100.00;99166.69;10332714;28;20036;-56
2022/11/13 04:07:23;;;;;;;43.45;27.13;;;;;;;5.79;100.00;99173.81;10332154;28;20068;-56
2022/11/13 04:12:22;;;;;;;46.28;26.48;;;;;;;5.87;99.54;99164.69;10331909;28;20033;-56
2022/11/13 04:17:21;;;;;;;46.35;26.70;;;;;;;5.91;100.00;99165.69;10331556;28;20017;-56
2022/11/13 04:22:20;;;;;;;54.67;29.95;;;;;;;5.94;99.25;99174.41;10331573;28;20039;-56
2022/11/13 04:27:19;;;;;;;56.90;33.83;;;;;;;5.90;100.00;99167.38;10331873;28;20100;-56
2022/11/13 04:32:18;;;;;;;50.85;27.98;;;;;;;5.71;99.95;99175.19;10331644;28;20033;-56
2022/11/13 04:37:17;;;;;;;49.45;28.33;;;;;;;5.61;99.96;99181.66;10331369;28;20025;-56
2022/11/13 04:47:34;;;;;;;49.00;28.08;;;;;;;5.58;100.00;99178.06;10338881;28;20057;-56
2022/11/13 04:52:33;;;;;;;50.53;29.05;;;;;;;5.49;100.00;99171.72;10339089;28;20103;-56
2022/11/13 04:57:32;;;;;;;60.42;33.33;;;;;;;5.39;100.00;99172.16;10338603;28;20056;-56
2022/11/13 05:02:31;;;;;;;48.72;28.58;;;;;;;5.35;100.00;99185.72;10338216;28;20033;-56
2022/11/13 05:07:30;;;;;;;;;;;;;;;5.34;100.00;99181.34;10338286;28;20088;-56
2022/11/13 05:12:29;;;;;;;48.40;26.70;;;;;;;5.35;99.86;99185.72;10338219;28;20017;-56
2022/11/13 05:17:28;;;;;;;52.17;28.60;;;;;;;5.31;100.00;99178.66;10338052;28;20113;-56
2022/11/13 05:22:27;;;;;;;62.88;34.13;;;;;;;5.29;100.00;99185.44;10337319;28;20100;-56
2022/11/13 05:27:26;;;;;;;66.30;35.15;;;;;;;5.25;100.00;99183.53;10337669;28;20034;-56
2022/11/13 05:32:24;;;;;;;61.63;33.65;;;;;;;5.33;100.00;99188.19;10337551;28;20460;-56
2022/11/13 05:37:23;;;;;;;69.55;37.15;;;;;;;5.47;100.00;99201.66;10337139;28;20030;-56
2022/11/13 05:42:22;;;;;;;72.03;36.38;;;;;;;5.59;100.00;99200.44;10336727;28;20112;-56
2022/11/13 05:47:21;;;;;;;149.90;83.13;;;;;;;5.67;100.00;99206.75;10337125;28;20585;-56
2022/11/13 05:52:20;;;;;;;66.68;37.28;;;;;;;5.53;100.00;99216.47;10333677;28;20045;-58
2022/11/13 05:57:19;;;;;;;68.53;36.78;;;;;;;5.36;100.00;99212.31;10334513;28;20029;-57
2022/11/13 06:02:18;;;;;;;74.00;35.15;;;;;;;5.41;100.00;99215.97;10334350;28;20476;-57
2022/11/13 06:07:17;;;;;;;74.82;36.38;;;;;;;5.51;100.00;99213.88;10334244;28;20037;-58
2022/11/13 06:12:16;;;;;;;87.45;34.75;;;;;;;5.33;100.00;99223.38;10334432;28;20014;-57
2022/11/13 06:17:15;;;;;;;65.00;32.95;;;;;;;5.43;100.00;99222.06;10333419;28;20168;-57
2022/11/13 06:22:14;;;;;;;63.20;32.03;;;;;;;5.65;100.00;99209.28;10332177;28;20129;-57
2022/11/13 06:27:13;;;;;;;97.72;48.65;;;;;;;5.79;100.00;99215.03;10332299;28;20153;-57
2022/11/13 06:32:12;;;;;;;89.28;48.70;;;;;;;5.94;100.00;99207.91;10332045;28;20021;-57
2022/11/13 06:37:11;;;;;;;92.93;49.45;;;;;;;6.08;100.00;99215.31;10333215;28;20026;-57
2022/11/13 06:42:10;;;;;;;106.57;51.38;;;;;;;6.23;100.00;99212.47;10334766;28;20104;-57
2022/11/13 06:47:09;;;;;;;88.50;46.05;;;;;;;6.39;100.00;99220.84;10334287;28;20021;-59
2022/11/13 06:52:08;;;;;;;73.93;41.63;;;;;;;6.43;99.71;99218.44;10334038;28;20051;-58
2022/11/13 06:57:07;;;;;;;67.82;37.20;;;;;;;6.42;99.11;99224.38;10334217;28;20510;-58
2022/11/13 07:02:08;;;;;;;67.20;32.45;;;;;;;6.40;99.25;99222.63;10333899;28;20120;-58
2022/11/13 07:07:07;;;;;;;72.72;36.55;;;;;;;6.31;99.40;99211.97;10329824;28;20068;-58
2022/11/13 07:12:06;;;;;;;66.10;35.15;;;;;;;6.39;98.90;99215.69;10332409;28;20029;-58
2022/11/13 07:17:05;;;;;;;59.33;33.38;;;;;;;6.55;98.75;99218.88;10331724;28;20725;-57
2022/11/13 07:22:04;;;;;;;62.38;38.75;;;;;;;6.61;99.27;99208.81;10331657;28;20501;-56
2022/11/13 07:27:03;;;;;;;68.32;43.17;;;;;;;6.72;98.41;99204.91;10331809;28;20033;-58
2022/11/13 07:32:02;;;;;;;53.67;34.03;;;;;;;6.90;98.04;99201.28;10331356;28;20117;-57
2022/11/13 07:37:02;;;;;;;52.78;33.03;;;;;;;7.11;98.09;99202.06;10331111;28;20065;-57
2022/11/13 07:42:00;;;;;;;54.30;33.28;;;;;;;7.23;97.02;99199.91;10332487;28;20073;-57
2022/11/13 07:46:59;;;;;;;51.25;31.58;;;;;;;7.45;97.16;99200.69;10332334;28;20029;-58
2022/11/13 07:51:58;;;;;;;48.53;31.10;;;;;;;7.62;95.98;99191.81;10332449;28;20053;-58
2022/11/13 07:56:57;;;;;;;50.58;31.45;;;;;;;7.83;96.16;99195.97;10332268;28;20116;-57
2022/11/13 08:01:56;;;;;;;49.15;31.10;;;;;;;8.06;94.89;99202.75;10331880;28;20049;-57
2022/11/13 08:06:55;;;;;;;50.97;31.73;;;;;;;8.07;93.92;99198.47;10331747;28;20073;-57
2022/11/13 08:11:54;;;;;;;60.60;38.78;;;;;;;8.04;93.14;99201.81;10331816;28;20038;-57
2022/11/13 08:16:53;;;;;;;63.55;41.20;;;;;;;8.06;93.28;99192.41;10332119;28;20116;-57
2022/11/13 08:21:52;;;;;;;100.57;73.35;;;;;;;8.03;92.70;99192.28;10340072;28;20029;-57
2022/11/13 08:26:51;;;;;;;46.88;29.80;;;;;;;7.99;92.45;99194.72;10340111;28;20548;-57
2022/11/13 08:31:50;;;;;;;30.92;18.50;;;;;;;7.76;91.65;99196.59;10339644;28;20033;-57
2022/11/13 08:36:49;;;;;;;69.18;38.85;;;;;;;7.84;91.90;99195.13;10339781;28;20072;-57
2022/11/13 08:41:48;;;;;;;37.03;23.65;;;;;;;8.04;91.68;99198.38;10340138;28;20104;-57
2022/11/13 08:46:47;;;;;;;46.28;27.25;;;;;;;8.39;91.16;99195.97;10339069;28;20068;-58
2022/11/13 08:51:46;;;;;;;37.35;23.25;;;;;;;8.69;90.32;99193.44;10338780;28;20038;-58
2022/11/13 08:56:48;;;;;;;33.58;21.23;;;;;;;8.70;88.88;99193.50;10338864;28;20042;-56
2022/11/13 09:01:47;;;;;;;34.90;19.83;;;;;;;8.81;87.74;99173.13;10338031;28;20073;-57
2022/11/13 09:06:46;;;;;;;29.30;18.38;;;;;;;9.00;86.42;99173.66;10338746;28;20096;-57
2022/11/13 09:11:45;;;;;;;44.55;29.08;;;;;;;9.08;86.16;99170.41;10338206;28;20064;-58
2022/11/13 09:16:44;;;;;;;;;;;;;;;8.65;86.09;99164.03;10338579;28;20454;-58
2022/11/13 09:21:43;;;;;;;27.38;16.67;;;;;;;8.50;85.99;99158.38;10337708;28;20403;-58
2022/11/13 09:26:42;;;;;;;;;;;;;;;8.61;87.05;99145.78;10337844;28;20080;-58
2022/11/13 09:31:41;;;;;;;31.02;20.38;;;;;;;8.93;87.16;99144.13;10336350;28;19992;-58
2022/11/13 09:36:40;;;;;;;32.33;20.48;;;;;;;8.75;85.53;99128.94;10337986;28;20065;-57
2022/11/13 09:41:52;;;;;;;;;;;;;;;8.82;86.00;99130.88;10336281;28;20069;-59
2022/11/13 09:46:58;;;;;;;35.47;22.95;;;;;;;8.97;85.87;99119.19;10336945;28;19964;-57
2022/11/13 09:52:22;;;;;;;34.33;22.40;;;;;;;9.29;85.26;99107.13;10337149;28;20535;-58
2022/11/13 09:57:24;;;;;;;39.90;25.83;;;;;;;9.53;83.67;99104.25;10336625;28;20496;-57
2022/11/13 10:02:29;;;;;;;43.17;28.23;;;;;;;9.56;83.14;99091.41;10336412;28;20071;-58
2022/11/13 10:08:10;;;;;;;45.35;29.60;;;;;;;9.78;82.86;99093.66;10336042;28;20119;-57
2022/11/13 10:13:14;;;;;;;55.45;37.65;;;;;;;9.85;82.31;99067.88;10335580;28;20180;-58
2022/11/13 10:18:22;;;;;;;54.30;36.28;;;;;;;9.74;81.63;99080.59;10335316;28;20069;-58
2022/11/13 10:23:28;;;;;;;48.45;31.20;;;;;;;9.55;82.37;99080.13;10335685;28;20069;-58
2022/11/13 10:28:27;;;;;;;46.47;30.92;;;;;;;9.33;82.27;99070.09;10334919;28;20068;-58
2022/11/13 10:33:26;;;;;;;47.50;32.05;;;;;;;9.22;83.41;99072.38;10334715;28;20044;-57
2022/11/13 10:38:38;;;;;;;45.95;31.75;;;;;;;9.20;84.40;99050.72;10334562;28;20394;-57
2022/11/13 10:43:54;;;;;;;51.42;33.30;;;;;;;9.30;83.98;99054.47;10334606;28;20067;-58
2022/11/13 10:48:53;;;;;;;53.78;34.35;;;;;;;9.33;83.58;99045.06;10334035;28;20085;-58
2022/11/13 10:53:54;;;;;;;51.80;33.78;;;;;;;9.34;83.68;99038.16;10334294;28;20108;-56
2022/11/13 10:59:11;;;;;;;81.47;63.08;;;;;;;9.44;82.91;99022.03;10334168;28;20072;-58
2022/11/13 11:04:22;;;;;;;50.10;33.60;;;;;;;9.56;83.54;99011.94;10333492;28;20077;-58
2022/11/13 11:09:25;;;;;;;47.88;30.90;;;;;;;9.55;83.90;99019.66;10333469;28;20076;-56
2022/11/13 11:14:31;;;;;;;41.47;29.05;;;;;;;9.49;85.20;98999.69;10333665;28;20111;-56
2022/11/13 11:19:36;;;;;;;46.83;31.38;;;;;;;9.53;86.55;98998.03;10333151;28;20509;-56
2022/11/13 11:24:39;;;;;;;57.92;39.67;;;;;;;9.63;85.95;98983.56;10333340;28;20509;-56
2022/11/13 11:29:50;;;;;;;55.05;37.83;;;;;;;9.78;85.30;98968.34;10333827;28;20467;-57
2022/11/13 11:35:15;;;;;;;51.97;36.15;;;;;;;10.06;84.64;98969.81;10333023;28;20071;-57
2022/11/13 11:40:29;;;;;;;46.30;31.60;;;;;;;10.11;85.73;98963.00;10331122;28;20748;-57
2022/11/13 11:45:35;;;;;;;40.08;25.02;;;;;;;10.33;84.12;98958.22;10332777;28;20452;-57
2022/11/13 11:51:07;;;;;;;36.42;23.73;;;;;;;10.49;83.41;98944.69;10332112;28;20077;-57
2022/11/13 11:56:25;;;;;;;32.20;21.75;;;;;;;10.61;82.70;98929.34;10298779;28;20081;-57
2022/11/13 12:02:00;;;;;;;32.90;22.80;;;;;;;10.88;82.74;98935.03;10332473;28;20077;-57
2022/11/13 12:07:20;;;;;;;31.83;20.73;;;;;;;11.07;81.45;98924.06;10332181;28;20065;-57
2022/11/13 12:12:50;;;;;;;23.10;15.48;;;;;;;11.38;79.36;98921.94;10331978;28;20061;-57
2022/11/13 12:17:57;;;;;;;25.55;18.70;;;;;;;11.74;77.04;98913.78;10331941;28;20072;-57
2022/11/13 12:23:21;;;;;;;22.23;16.40;;;;;;;12.08;75.74;98895.97;10332408;28;20547;-58
2022/11/13 12:28:27;;;;;;;26.38;18.88;;;;;;;12.35;72.48;98891.97;10331928;28;20061;-57
2022/11/13 12:33:40;;;;;;;19.33;14.40;;;;;;;12.63;70.32;98887.91;10331424;28;20072;-58
2022/11/13 12:38:50;;;;;;;15.40;13.32;;;;;;;12.81;67.51;98903.66;10331404;28;20065;-57
2022/11/13 12:44:06;;;;;;;20.20;14.57;;;;;;;13.00;66.03;98904.72;10331384;28;20069;-57
2022/11/13 12:49:27;;;;;;;18.33;14.00;;;;;;;13.15;65.37;98898.72;10330631;28;20554;-57
2022/11/13 12:54:29;;;;;;;19.55;14.00;;;;;;;13.24;64.50;98908.34;10331704;28;20077;-57
2022/11/13 12:59:35;;;;;;;17.38;13.98;;;;;;;13.34;63.78;98904.94;10330789;28;20071;-57
2022/11/13 13:04:58;;;;;;;17.55;13.85;;;;;;;13.31;63.20;98891.88;10332347;28;20064;-57
2022/11/13 13:10:05;;;;;;;16.77;13.30;;;;;;;13.39;63.56;98899.75;10338295;28;20383;-57
2022/11/13 13:15:22;;;;;;;15.65;11.98;;;;;;;13.39;62.05;98898.00;10337876;28;20073;-57
2022/11/13 13:20:21;;;;;;;36.03;23.80;;;;;;;13.46;62.22;98905.00;10337917;28;20077;-56
2022/11/13 13:25:34;;;;;;;20.48;15.68;;;;;;;13.47;61.30;98896.31;10337972;28;20075;-59
2022/11/13 13:30:49;;;;;;;21.17;16.60;;;;;;;13.41;60.92;98891.06;10337860;28;20069;-58
2022/11/13 13:36:03;;;;;;;20.80;16.70;;;;;;;13.35;61.49;98891.00;10337686;28;20056;-58
2022/11/13 13:41:26;;;;;;;19.55;15.13;;;;;;;13.31;61.67;98889.28;10337342;28;20061;-57
2022/11/13 13:46:29;;;;;;;19.33;15.85;;;;;;;13.29;61.48;98889.25;10336879;28;20072;-57
2022/11/13 13:51:38;;;;;;;18.88;14.90;;;;;;;13.25;61.70;98894.44;10336896;28;20081;-57
2022/11/13 13:56:41;;;;;;;22.87;15.70;;;;;;;13.21;61.60;98887.47;10336722;28;20469;-57
2022/11/13 14:01:40;;;;;;;26.23;19.20;;;;;;;13.09;61.47;98898.66;10336291;28;20810;-57
2022/11/13 14:06:50;;;;;;;20.55;16.00;;;;;;;13.00;61.86;98894.28;10336730;28;20037;-58
2022/11/13 14:12:04;;;;;;;21.38;14.65;;;;;;;12.93;62.40;98900.31;10336064;28;20511;-58
2022/11/13 14:17:03;;;;;;;22.83;16.90;;;;;;;12.84;62.43;98905.44;10335913;28;20065;-58
2022/11/13 14:22:07;;;;;;;20.33;16.38;;;;;;;12.66;62.60;98883.56;10335806;28;20103;-57
2022/11/13 14:27:09;;;;;;;22.15;17.73;;;;;;;12.54;63.12;98883.47;10333556;28;20069;-57
2022/11/13 14:32:17;;;;;;;23.00;18.55;;;;;;;12.38;63.46;98895.47;10335292;28;20063;-57
2022/11/13 14:37:16;;;;;;;29.33;23.58;;;;;;;12.21;63.70;98887.44;10333952;28;20077;-57
2022/11/13 14:42:18;;;;;;;30.50;24.00;;;;;;;12.01;64.15;98881.16;10334235;28;20048;-57
2022/11/13 14:47:24;;;;;;;28.50;21.50;;;;;;;11.88;64.82;98891.41;10334171;28;20057;-57
2022/11/13 14:52:27;;;;;;;26.83;19.70;;;;;;;11.64;65.58;98888.50;10333602;28;20124;-57
2022/11/13 14:57:26;;;;;;;26.00;18.80;;;;;;;11.48;65.90;98881.34;10333773;28;20107;-58
2022/11/13 15:02:25;;;;;;;27.15;18.38;;;;;;;11.31;67.04;98879.38;10333627;28;20079;-58
2022/11/13 15:07:28;;;;;;;25.02;19.67;;;;;;;11.14;67.98;98880.88;10330231;28;20033;-59
2022/11/13 15:12:27;;;;;;;30.38;21.40;;;;;;;10.98;67.83;98875.44;10331669;28;20099;-58
2022/11/13 15:17:26;;;;;;;30.30;22.10;;;;;;;10.84;68.88;98875.19;10331661;28;20025;-58
2022/11/13 15:22:25;;;;;;;31.10;22.77;;;;;;;10.68;69.44;98868.00;10331814;28;20508;-57
2022/11/13 15:27:24;;;;;;;33.63;23.27;;;;;;;10.58;69.29;98882.56;10329983;28;20021;-57
2022/11/13 15:32:23;;;;;;;41.65;28.48;;;;;;;10.46;70.05;98871.97;10331820;28;20032;-58
2022/11/13 15:37:22;;;;;;;56.75;40.10;;;;;;;10.30;71.48;98880.34;10328030;28;20073;-57
2022/11/13 15:42:27;;;;;;;56.40;41.22;;;;;;;10.08;72.41;98887.72;10331048;28;20033;-57
2022/11/13 15:47:36;;;;;;;141.88;87.05;;;;;;;9.85;73.23;98889.88;10330493;28;20061;-58
2022/11/13 15:52:39;;;;;;;119.03;73.90;;;;;;;9.63;74.20;98885.06;10330028;28;20069;-59
2022/11/13 15:57:38;;;;;;;70.13;47.15;;;;;;;9.43;75.42;98892.44;10330536;28;20130;-58
2022/11/13 16:02:37;;;;;;;58.80;40.10;;;;;;;9.22;76.32;98885.91;10330205;28;20046;-57
2022/11/13 16:07:37;;;;;;;58.30;40.50;;;;;;;9.03;77.29;98891.50;10326586;28;20065;-57
2022/11/13 16:12:36;;;;;;;48.55;33.00;;;;;;;8.86;78.16;98888.53;10290272;28;20151;-57
2022/11/13 16:17:38;;;;;;;;;;;;;;;8.71;78.97;98904.53;10304748;28;20139;-58
2022/11/13 16:22:37;;;;;;;56.78;40.78;;;;;;;8.54;79.73;98895.47;10289355;28;19987;-58
2022/11/13 16:27:37;;;;;;;101.50;66.13;;;;;;;8.44;80.47;98908.19;10289715;28;20030;-58
2022/11/13 16:32:35;;;;;;;;;;;;;;;8.36;81.71;98907.09;10290108;28;20069;-58
2022/11/13 16:37:34;;;;;;;77.35;48.35;;;;;;;8.24;81.74;98911.94;10288879;28;19936;-57
2022/11/13 16:42:33;;;;;;;217.77;127.63;;;;;;;8.15;82.60;98914.28;10296685;28;20050;-57
2022/11/13 16:47:32;;;;;;;108.90;69.25;;;;;;;8.08;82.47;98911.53;10309506;28;20040;-57
2022/11/13 16:52:33;;;;;;;121.93;81.88;;;;;;;7.98;82.81;98913.81;10336727;28;20529;-57
2022/11/13 16:57:31;;;;;;;104.18;72.90;;;;;;;7.84;83.26;98921.19;10337699;28;20077;-57
2022/11/13 17:02:30;;;;;;;114.80;76.32;;;;;;;7.77;83.69;98929.59;10336590;28;20124;-57
2022/11/13 17:07:29;;;;;;;98.18;69.82;;;;;;;7.63;84.59;98921.44;10336125;28;20037;-58
2022/11/13 17:12:29;;;;;;;113.07;80.90;;;;;;;7.50;85.35;98914.16;10336544;28;20116;-58
2022/11/13 17:17:28;;;;;;;107.20;72.15;;;;;;;7.44;85.66;98922.59;10336137;28;20246;-58
2022/11/13 17:22:27;;;;;;;105.30;70.30;;;;;;;7.36;85.26;98916.31;10335074;28;20030;-57
2022/11/13 17:27:26;;;;;;;;;;;;;;;7.26;86.04;98912.53;10336202;28;20080;-58
2022/11/13 17:32:25;;;;;;;134.93;89.22;;;;;;;7.15;86.75;98908.78;10335838;28;19960;-57
2022/11/13 17:37:24;;;;;;;109.28;79.60;;;;;;;7.01;86.53;98908.34;10335278;28;20366;-57
2022/11/13 17:42:23;;;;;;;107.97;73.25;;;;;;;6.90;87.54;98904.53;10335209;28;20454;-57
2022/11/13 17:47:22;;;;;;;96.95;59.90;;;;;;;6.82;87.10;98907.75;10335069;28;20027;-57
2022/11/13 17:52:21;;;;;;;91.97;56.10;;;;;;;6.74;87.29;98913.47;10330474;28;20049;-57
2022/11/13 17:57:20;;;;;;;77.68;48.60;;;;;;;6.67;87.71;98912.41;10334394;28;20531;-57
2022/11/13 18:02:19;;;;;;;106.43;68.50;;;;;;;6.57;88.59;98911.22;10334616;28;20026;-57
2022/11/13 18:07:18;;;;;;;88.95;59.65;;;;;;;6.43;88.70;98909.88;10333817;28;20045;-57
2022/11/13 18:12:17;;;;;;;108.97;69.15;;;;;;;6.36;89.41;98910.50;10334376;28;20527;-57
2022/11/13 18:17:16;;;;;;;148.10;94.32;;;;;;;6.26;89.49;98914.47;10334522;28;20493;-58
2022/11/13 18:22:16;;;;;;;102.63;65.60;;;;;;;6.18;89.64;98915.88;10332787;28;20056;-57
2022/11/13 18:27:14;;;;;;;101.85;67.00;;;;;;;6.13;90.06;98913.16;10333074;28;20065;-57
2022/11/13 18:32:13;;;;;;;104.22;63.28;;;;;;;6.07;90.42;98910.38;10333310;28;20029;-58
2022/11/13 18:37:12;;;;;;;168.60;105.72;;;;;;;6.02;90.51;98913.59;10332571;28;20029;-58
2022/11/13 18:42:11;;;;;;;138.55;86.20;;;;;;;5.93;90.73;98909.88;10333175;28;20497;-57
2022/11/13 18:47:10;;;;;;;185.07;109.82;;;;;;;5.87;90.59;98914.78;10333098;28;20113;-58
2022/11/13 18:52:10;;;;;;;132.30;83.22;;;;;;;5.80;91.01;98924.81;10332153;28;20527;-58
2022/11/13 18:57:09;;;;;;;124.38;76.65;;;;;;;5.76;91.18;98922.13;10330461;28;20532;-58
2022/11/13 19:02:10;;;;;;;134.90;86.47;;;;;;;5.68;91.60;98920.97;10332368;28;20044;-58
2022/11/13 19:07:10;;;;;;;139.32;94.57;;;;;;;5.48;91.72;98912.50;10332158;28;20092;-56
2022/11/13 19:12:09;;;;;;;149.15;100.55;;;;;;;5.49;92.13;98919.41;10331889;28;20077;-57
2022/11/13 19:17:08;;;;;;;131.40;87.18;;;;;;;5.40;92.37;98925.91;10331688;28;20408;-56
2022/11/13 19:22:07;;;;;;;133.13;87.05;;;;;;;5.32;92.63;98923.94;10331376;28;20033;-57
2022/11/13 19:27:06;;;;;;;141.73;93.80;;;;;;;5.27;92.29;98929.69;10331323;28;20076;-57
2022/11/13 19:32:05;;;;;;;151.88;95.43;;;;;;;5.21;92.34;98925.19;10332839;28;20029;-56
2022/11/13 19:37:04;;;;;;;150.05;92.25;;;;;;;5.12;92.54;98912.84;10332504;28;20037;-57
2022/11/13 19:42:03;;;;;;;155.10;96.07;;;;;;;5.05;92.89;98915.13;10332521;28;20077;-57
2022/11/13 19:47:02;;;;;;;143.52;93.22;;;;;;;4.97;93.25;98904.53;10330967;28;20037;-58
2022/11/13 19:52:01;;;;;;;195.30;99.13;;;;;;;4.94;93.44;98917.25;10332023;28;20053;-57
2022/11/13 19:57:00;;;;;;;133.98;76.93;;;;;;;4.90;93.32;98917.94;10332327;28;20033;-57
2022/11/13 20:02:00;;;;;;;122.50;67.40;;;;;;;4.87;93.53;98910.94;10331524;28;20128;-58
2022/11/13 20:06:59;;;;;;;126.72;73.28;;;;;;;4.80;93.53;98915.78;10331437;28;20107;-58
2022/11/13 20:11:58;;;;;;;108.65;61.60;;;;;;;4.69;94.24;98907.66;10332940;28;20029;-57
2022/11/13 20:16:57;;;;;;;109.90;66.93;;;;;;;4.67;94.22;98910.16;10338834;28;20037;-58
2022/11/13 20:21:56;;;;;;;117.32;71.65;;;;;;;4.67;94.50;98912.72;10321442;28;20481;-57
2022/11/13 20:26:55;;;;;;;245.23;143.68;;;;;;;4.65;94.67;98908.34;10299693;28;20472;-58
2022/11/13 20:31:54;;;;;;;134.77;73.40;;;;;;;4.60;94.32;98903.00;10299380;28;20037;-58
2022/11/13 20:36:53;;;;;;;129.48;66.10;;;;;;;4.52;94.50;98899.22;10299298;28;20112;-58
2022/11/13 20:41:52;;;;;;;142.18;84.15;;;;;;;4.45;94.67;98903.25;10299273;28;20046;-57
2022/11/13 20:46:51;;;;;;;145.88;86.05;;;;;;;4.26;95.55;98901.59;10306227;28;20109;-57
2022/11/13 20:51:50;;;;;;;170.60;99.93;;;;;;;4.22;95.53;98899.72;10338934;28;20050;-57
2022/11/13 20:56:49;;;;;;;162.45;92.70;;;;;;;4.13;95.63;98894.19;10339024;28;20076;-57
2022/11/13 21:01:48;;;;;;;113.13;62.20;;;;;;;4.10;95.63;98894.03;10338749;28;20026;-57
2022/11/13 21:06:47;;;;;;;;;;;;;;;3.94;96.24;98891.63;10339027;28;20064;-58
2022/11/13 21:11:46;;;;;;;111.75;55.40;;;;;;;3.85;96.16;98885.28;10338811;28;19909;-57
2022/11/13 21:16:45;;;;;;;133.85;67.03;;;;;;;3.81;96.04;98891.09;10338274;28;20045;-57
2022/11/13 21:21:44;;;;;;;128.30;63.90;;;;;;;3.78;95.83;98878.13;10338022;28;20069;-57
2022/11/13 21:26:43;;;;;;;126.57;64.32;;;;;;;3.77;95.85;98889.19;10336545;28;20030;-58
2022/11/13 21:31:42;;;;;;;133.77;70.47;;;;;;;3.71;95.78;98876.13;10337752;28;20528;-58
2022/11/13 21:36:41;;;;;;;140.23;77.55;;;;;;;3.73;95.63;98887.34;10337972;28;20532;-58
2022/11/13 21:41:40;;;;;;;150.45;86.22;;;;;;;3.68;95.50;98887.91;10337642;28;20041;-58
2022/11/13 21:46:40;;;;;;;136.60;78.32;;;;;;;3.63;95.61;98885.16;10336759;28;20377;-58
2022/11/13 21:51:41;;;;;;;152.25;87.95;;;;;;;3.57;96.02;98885.78;10300621;28;20073;-58
2022/11/13 21:56:41;;;;;;;139.32;77.72;;;;;;;3.52;95.91;98873.53;10296139;28;20551;-58
2022/11/13 22:01:39;;;;;;;;;;;;;;;3.49;96.11;98876.84;10296508;28;20533;-56
2022/11/13 22:06:38;;;;;;;137.55;78.05;;;;;;;3.44;96.39;98871.50;10296196;28;20404;-56
2022/11/13 22:11:37;;;;;;;155.60;84.35;;;;;;;3.39;96.67;98880.69;10295482;28;20496;-56
2022/11/13 22:16:40;;;;;;;220.02;116.68;;;;;;;3.34;96.91;98877.03;10295537;28;20061;-56
2022/11/13 22:21:39;;;;;;;144.25;76.57;;;;;;;3.32;96.36;98868.38;10294901;28;20092;-56
2022/11/13 22:26:41;;;;;;;125.82;66.60;;;;;;;3.34;96.34;98865.91;10294951;28;20061;-56
2022/11/13 22:31:40;;;;;;;128.32;67.63;;;;;;;3.30;96.71;98864.88;10294569;28;20077;-56
2022/11/13 22:36:39;;;;;;;123.63;64.95;;;;;;;3.28;96.38;98866.47;10299418;28;20084;-56
2022/11/13 22:41:38;;;;;;;119.57;60.53;;;;;;;3.25;96.10;98860.34;10334602;28;20048;-56
2022/11/13 22:46:37;;;;;;;126.28;67.13;;;;;;;3.20;96.09;98852.44;10334766;28;20109;-56
2022/11/13 22:51:40;;;;;;;139.75;75.38;;;;;;;3.12;96.32;98853.75;10334567;28;20053;-56
2022/11/13 22:56:40;;;;;;;137.73;70.40;;;;;;;3.08;96.08;98851.88;10334957;28;20075;-56
2022/11/13 23:01:41;;;;;;;137.38;75.53;;;;;;;2.99;96.17;98845.50;10334163;28;20077;-56
2022/11/13 23:06:41;;;;;;;125.75;65.35;;;;;;;2.96;95.94;98845.38;10333987;28;20073;-56